PAUN

Unalakleet Airport

Airport
ICAO code
PAUN
Summary
ICAO Region
NAM
ICAO Territory
Location

Unalakleet,

Coordinates
63° 53' 18" N , 160° 47' 56" W
KCC
Airport BS
Bird Strike
Non Avian Wildlife Hazards to Aircraft
Airport CFIT
Altimeter Temperature Error Correction
Metar
PAUN 161056Z AUTO 15025G30KT 10SM OVC055 02/M02 A2980 RMK AO2 PK WND 15033/1033 SLP096 T00221017 FZRANO

Description

Regional airport serving Unalakleet, Alaska.

Climatology

Subarctic climate (Köppen climate classification Dfc) - long, usually very cold winters, and short, cool to mild summers.

Runways

Designator Length Width Surface Rops
8/26 610 24 GVL Yes/Yes
15/33 1830 46 GRAVEL-G Yes/Yes

Airport map

Aerial View

SKYbrary Partners:

Safety knowledge contributed by: